EW4547 Weather Reports


Display with metric or nautical units.
time (UTC)temp
F
wind
direction
speed
MPH
gust
MPH
rain 1hr
in
rain 24hr
in
rain mn
in
humidity
%
barometer
mb
20191022034203 59 148 0.0 3.0 0.00 0.00 0.00 91 1019.3
20191022033702 59 149 0.0 2.0 0.00 0.00 0.00 91 1019.3
20191022033203 59 149 1.0 3.0 0.00 0.00 0.00 92 1019.4
20191022031703 59 140 0.0 2.0 0.00 0.00 0.00 91 1019.5
20191022031202 58 140 0.0 2.0 0.00 0.00 0.00 91 1019.4
20191022030702 58 137 0.0 2.0 0.00 0.00 0.00 91 1019.3
20191022030203 58 96 0.0 1.0 0.00 0.00 0.00 91 1019.4
20191022024703 58 96 0.0 0.0 0.00 0.00 0.00 90 1019.6
20191022024202 58 96 0.0 0.0 0.00 0.00 0.00 90 1019.6
20191022023703 58 96 0.0 0.0 0.00 0.00 0.00 90 1019.6
20191022023203 59 96 0.0 0.0 0.00 0.00 0.00 90 1019.5
20191022021703 59 96 0.0 2.0 0.00 0.00 0.00 90 1019.6
20191022021203 59 96 0.0 2.0 0.00 0.00 0.00 90 1019.5
20191022020703 59 96 0.0 1.0 0.00 0.00 0.00 90 1019.4
20191022020202 59 96 0.0 1.0 0.00 0.00 0.00 90 1019.4
20191022014702 59 96 0.0 2.0 0.00 0.00 0.00 90 1019.0
20191022014203 59 96 0.0 1.0 0.00 0.00 0.00 90 1019.2
20191022013702 59 99 0.0 2.0 0.00 0.00 0.00 90 1019.3
20191022013203 59 99 0.0 1.0 0.00 0.00 0.00 90 1019.3
20191022011702 59 99 0.0 0.0 0.00 0.00 0.00 90 1019.4
20191022011203 59 99 0.0 0.0 0.00 0.00 0.00 90 1019.2
20191022010702 59 99 0.0 0.0 0.00 0.00 0.00 90 1019.2
20191022010203 59 99 0.0 0.0 0.00 0.00 0.00 90 1019.1
20191022004702 60 99 0.0 1.0 0.00 0.00 0.00 90 1019.1
20191022004203 60 100 0.0 1.0 0.00 0.00 0.00 90 1019.1
20191022003702 60 100 0.0 1.0 0.00 0.00 0.00 90 1019.1
20191022003203 60 99 1.0 3.0 0.00 0.00 0.00 90 1019.1
20191022001702 60 101 1.0 2.0 0.00 0.00 0.00 90 1018.9
20191022001203 60 102 1.0 3.0 0.00 0.00 0.00 89 1019.1
20191022000702 60 90 0.0 2.0 0.00 0.00 0.00 90 1018.9
20191022000203 60 90 0.0 3.0 0.00 0.00 0.00 90 1018.9
20191021234702 61 129 0.0 2.0 0.00 0.00 0.00 89 1019.3
20191021234202 61 130 0.0 1.0 0.00 0.00 0.00 89 1019.2
20191021233702 61 121 1.0 2.0 0.00 0.00 0.00 89 1019.1
20191021233203 61 99 0.0 1.0 0.00 0.00 0.00 89 1019.0
20191021231703 62 98 0.0 1.0 0.00 0.00 0.00 89 1018.7
20191021231203 62 98 0.0 2.0 0.00 0.00 0.00 89 1018.5
20191021230703 62 98 0.0 0.0 0.00 0.00 0.00 88 1018.3
20191021230202 62 98 0.0 0.0 0.00 0.00 0.00 88 1018.4
20191021224703 63 98 0.0 1.0 0.00 0.00 0.00 88 1018.3
20191021224203 63 98 0.0 1.0 0.00 0.00 0.00 88 1018.4
20191021223702 63 98 0.0 1.0 0.00 0.00 0.00 88 1018.3
20191021223203 64 98 0.0 2.0 0.00 0.00 0.00 88 1018.2
20191021221703 64 98 0.0 1.0 0.00 0.00 0.00 88 1018.4
20191021221202 65 98 1.0 2.0 0.00 0.00 0.00 87 1018.3
20191021220703 65 115 0.0 3.0 0.00 0.00 0.00 87 1018.2
20191021220203 65 160 0.0 3.0 0.00 0.00 0.00 87 1018.1
20191021214702 66 82 0.0 3.0 0.00 0.00 0.00 87 1018.2
20191021214203 66 100 3.0 6.0 0.00 0.00 0.00 86 1018.2
20191021213702 66 100 2.0 6.0 0.00 0.00 0.00 87 1018.4
20191021213203 67 94 1.0 5.0 0.00 0.00 0.00 87 1018.3
20191021211703 68 83 2.0 6.0 0.00 0.00 0.00 86 1018.5
20191021211203 68 78 1.0 3.0 0.00 0.00 0.00 87 1018.4
20191021210702 68 140 0.0 3.0 0.00 0.00 0.00 87 1018.6
20191021210203 68 76 0.0 3.0 0.00 0.00 0.00 87 1018.6
20191021204703 68 102 2.0 5.0 0.00 0.00 0.00 86 1018.6
20191021204202 69 77 2.0 7.0 0.00 0.00 0.00 87 1018.5
20191021203703 68 220 0.0 2.0 0.00 0.00 0.00 87 1018.3
20191021203203 68 100 1.0 5.0 0.00 0.00 0.00 87 1018.3
20191021201703 68 75 1.0 3.0 0.00 0.00 0.00 88 1018.3
20191021201203 68 126 1.0 3.0 0.00 0.00 0.00 88 1018.3
20191021200703 68 91 1.0 3.0 0.00 0.00 0.00 87 1018.4
20191021200203 68 147 1.0 7.0 0.00 0.00 0.00 87 1018.5
20191021194702 68 155 1.0 3.0 0.00 0.00 0.00 87 1018.1
20191021194202 68 111 1.0 3.0 0.00 0.00 0.00 88 1018.2
20191021193703 68 132 2.0 3.0 0.00 0.00 0.00 88 1018.3
20191021193202 68 90 1.0 3.0 0.00 0.00 0.00 88 1018.5
20191021191703 68 78 3.0 6.0 0.00 0.00 0.00 88 1018.7
20191021191203 67 174 1.0 3.0 0.00 0.00 0.00 88 1018.7
20191021190703 67 123 1.0 3.0 0.00 0.00 0.00 89 1018.8
20191021190203 67 74 1.0 5.0 0.00 0.00 0.00 89 1018.8
20191021184703 67 152 1.0 3.0 0.00 0.00 0.00 89 1018.6
20191021184203 66 133 1.0 3.0 0.00 0.00 0.00 90 1018.5
20191021183703 66 194 1.0 3.0 0.00 0.00 0.00 89 1018.7
20191021183203 65 179 1.0 3.0 0.00 0.00 0.00 90 1018.8
20191021181703 64 100 2.0 3.0 0.00 0.00 0.00 90 1019.0
20191021181202 64 84 1.0 3.0 0.00 0.00 0.00 90 1019.0
20191021180703 64 52 1.0 3.0 0.00 0.00 0.00 90 1019.1
20191021180203 64 3 2.0 5.0 0.00 0.00 0.00 89 1019.3
20191021174702 64 20 2.0 5.0 0.00 0.00 0.00 90 1019.2
20191021174203 64 66 1.0 7.0 0.00 0.00 0.00 90 1019.2
20191021173703 64 19 2.0 3.0 0.00 0.00 0.00 90 1019.2
20191021173203 64 78 2.0 10.0 0.00 0.00 0.00 90 1019.3
20191021171702 64 169 1.0 5.0 0.00 0.00 0.00 90 1019.8
20191021171203 64 54 2.0 8.0 0.00 0.00 0.00 90 1019.8
20191021170703 64 98 3.0 7.0 0.00 0.00 0.00 90 1019.8
20191021170202 64 118 4.0 12.0 0.00 0.00 0.00 90 1019.8
20191021164703 64 137 1.0 3.0 0.00 0.00 0.00 91 1020.3
20191021164202 64 104 1.0 3.0 0.00 0.00 0.00 91 1020.3
20191021163703 64 72 2.0 9.0 0.00 0.00 0.00 90 1020.2
20191021163202 64 79 2.0 8.0 0.00 0.00 0.00 91 1020.1
20191021161703 64 123 2.0 8.0 0.00 0.00 0.00 91 1020.0
20191021161203 64 130 2.0 8.0 0.00 0.00 0.00 91 1020.0
20191021160703 63 5 2.0 8.0 0.00 0.00 0.00 91 1020.0
20191021160203 63 75 3.0 10.0 0.00 0.00 0.00 91 1020.0
20191021154702 63 88 3.0 8.0 0.00 0.00 0.00 91 1019.9
20191021154203 63 59 3.0 8.0 0.00 0.00 0.00 91 1019.8
20191021153703 63 69 4.0 8.0 0.00 0.00 0.00 92 1019.8
20191021153203 62 76 5.0 9.0 0.00 0.00 0.00 92 1019.8
20191021151703 62 60 3.0 7.0 0.00 0.00 0.00 92 1019.8
20191021151203 62 46 3.0 8.0 0.00 0.00 0.00 92 1019.8
20191021150703 61 70 3.0 7.0 0.00 0.00 0.00 92 1019.7
20191021150203 61 67 3.0 8.0 0.00 0.00 0.00 92 1019.7
20191021144703 61 100 2.0 5.0 0.00 0.01 0.00 93 1019.9
20191021144203 60 73 2.0 3.0 0.00 0.01 0.00 93 1019.9
20191021143703 60 65 2.0 6.0 0.00 0.01 0.00 93 1019.9
20191021143203 60 85 3.0 7.0 0.00 0.01 0.00 93 1019.8
20191021141703 58 88 1.0 3.0 0.00 0.01 0.00 94 1019.7
20191021141203 58 44 0.0 1.0 0.00 0.01 0.00 94 1019.7
20191021140703 58 62 0.0 2.0 0.00 0.01 0.00 94 1019.7
20191021140203 57 106 2.0 3.0 0.00 0.02 0.00 94 1019.6
20191021134703 57 5 0.0 2.0 0.00 0.04 0.00 94 1019.9
20191021134202 57 72 1.0 3.0 0.00 0.04 0.00 94 1019.9
20191021133703 57 81 2.0 3.0 0.00 0.04 0.00 94 1019.7
20191021133203 57 47 1.0 3.0 0.00 0.04 0.00 94 1019.7
20191021131703 57 92 1.0 3.0 0.00 0.05 0.00 94 1019.6
20191021131203 57 84 1.0 2.0 0.00 0.06 0.00 94 1019.6
20191021130703 56 38 1.0 2.0 0.00 0.06 0.00 94 1019.5
20191021130202 56 355 1.0 2.0 0.00 0.06 0.00 94 1019.5
20191021124703 56 353 1.0 2.0 0.00 0.07 0.00 94 1019.2
20191021124203 56 46 0.0 2.0 0.00 0.07 0.00 94 1019.1
20191021123703 56 46 0.0 1.0 0.00 0.07 0.00 94 1019.1
20191021123203 56 46 0.0 2.0 0.00 0.07 0.00 94 1019.1
20191021121703 55 42 0.0 0.0 0.00 0.07 0.00 94 1018.8
20191021121203 55 42 0.0 1.0 0.00 0.07 0.00 94 1018.8
20191021120703 55 42 0.0 1.0 0.00 0.07 0.00 94 1018.7
20191021120203 55 355 1.0 1.0 0.00 0.07 0.00 94 1018.6
20191021114703 54 304 0.0 1.0 0.00 0.13 0.00 94 1018.6
20191021114203 54 304 0.0 1.0 0.00 0.14 0.00 94 1018.5
20191021113703 54 288 0.0 1.0 0.00 0.16 0.00 94 1018.5
20191021113203 54 288 0.0 1.0 0.00 0.18 0.00 94 1018.4
20191021111703 54 286 0.0 1.0 0.00 0.25 0.00 93 1018.3
20191021111202 54 286 0.0 0.0 0.00 0.31 0.00 93 1018.4
20191021110703 54 286 0.0 0.0 0.00 0.36 0.00 93 1018.4
20191021110203 54 286 0.0 1.0 0.00 0.41 0.00 93 1018.2
20191021104703 54 286 0.0 0.0 0.00 0.58 0.00 93 1017.9
20191021104203 54 286 0.0 0.0 0.00 0.61 0.00 93 1017.8
20191021103702 54 286 0.0 0.0 0.00 0.62 0.00 93 1017.7
20191021103203 55 286 0.0 0.0 0.00 0.64 0.00 93 1017.6
20191021101703 55 286 0.0 0.0 0.00 0.68 0.00 93 1017.5
20191021101203 55 286 0.0 1.0 0.00 0.69 0.00 93 1017.4
20191021100703 55 286 0.0 1.0 0.00 0.70 0.00 93 1017.3
20191021100203 55 286 0.0 1.0 0.00 0.72 0.00 93 1017.3
20191021094703 56 286 0.0 1.0 0.00 0.84 0.00 93 1017.1
20191021094202 56 286 0.0 1.0 0.00 0.87 0.00 93 1017.0
20191021093703 56 286 0.0 1.0 0.00 0.89 0.00 93 1017.1
20191021093203 56 287 0.0 2.0 0.00 0.91 0.00 93 1017.1
20191021091703 55 21 0.0 2.0 0.00 1.09 0.00 93 1016.9
20191021091203 55 78 0.0 2.0 0.00 1.11 0.00 93 1017.0
20191021090703 55 80 0.0 0.0 0.00 1.12 0.00 93 1016.8
20191021090203 55 80 0.0 1.0 0.00 1.13 0.00 93 1016.5
20191021084704 55 80 0.0 1.0 0.00 1.13 0.00 93 1016.6
20191021084203 55 80 0.0 0.0 0.00 1.13 0.00 92 1016.5
20191021083703 55 80 0.0 0.0 0.00 1.13 0.00 92 1016.4
20191021083203 56 80 0.0 0.0 0.00 1.13 0.00 92 1016.5
20191021081703 56 80 0.0 0.0 0.00 1.14 0.00 92 1016.2
20191021081203 56 80 0.0 0.0 0.00 1.14 0.00 92 1016.0
20191021080703 56 80 0.0 0.0 0.00 1.15 0.00 92 1015.9
20191021080203 56 80 0.0 1.0 0.00 1.17 0.00 92 1016.0
20191021074703 57 81 0.0 1.0 0.00 1.19 0.00 92 1016.0
20191021074204 57 81 0.0 1.0 0.00 1.19 0.00 92 1016.0
20191021073703 57 81 0.0 0.0 0.00 1.19 0.00 92 1015.9
20191021073203 57 81 0.0 1.0 0.00 1.19 0.00 92 1015.8
20191021071703 58 81 0.0 2.0 0.00 1.21 0.00 92 1016.0
20191021071203 58 80 1.0 3.0 0.00 1.21 0.00 92 1015.9
20191021070703 58 44 0.0 2.0 0.00 1.22 0.00 91 1015.9
20191021070203 58 39 1.0 3.0 0.00 1.23 0.00 91 1015.7
20191021064703 58 68 1.0 2.0 0.00 1.29 0.00 91 1015.8
20191021064203 58 325 0.0 1.0 0.00 1.29 0.00 91 1015.7
20191021063703 58 325 1.0 3.0 0.00 1.29 0.00 91 1015.7
20191021063203 59 80 0.0 2.0 0.00 1.29 0.00 91 1015.9
20191021061703 59 349 0.0 3.0 0.00 1.33 0.00 91 1015.7
20191021061203 59 339 1.0 2.0 0.00 1.34 0.00 91 1015.7
20191021060703 59 350 1.0 3.0 0.00 1.34 0.00 91 1015.6
20191021060203 59 69 1.0 5.0 0.00 1.35 0.00 91 1015.6
20191021054703 60 316 2.0 5.0 0.00 1.38 0.00 91 1015.5
20191021054203 60 19 2.0 7.0 0.00 1.39 0.00 91 1015.5
20191021053704 60 336 2.0 3.0 0.00 1.40 0.00 91 1015.6
20191021053203 60 57 1.0 9.0 0.00 1.41 0.00 91 1015.5
20191021051703 60 0 1.0 3.0 0.00 1.41 0.00 91 1015.6
20191021051203 60 23 2.0 5.0 0.00 1.41 0.00 91 1015.5
20191021050704 60 304 1.0 3.0 0.00 1.41 0.00 91 1015.5
20191021050203 60 13 2.0 8.0 0.00 1.41 0.00 91 1015.5
20191021044703 60 291 1.0 3.0 0.00 1.41 0.00 91 1015.4
20191021044203 60 321 2.0 9.0 0.00 1.41 0.00 91 1015.4
20191021043703 60 3 2.0 12.0 0.00 1.41 0.00 91 1015.3
20191021043203 60 332 1.0 9.0 0.00 1.41 0.00 91 1015.3
20191021041703 60 346 2.0 3.0 0.00 1.42 0.00 91 1015.3
20191021041203 60 292 1.0 3.0 0.00 1.42 0.00 91 1015.3
20191021040703 60 309 2.0 6.0 0.00 1.42 0.00 91 1015.4
20191021040205 60 265 2.0 6.0 0.00 1.42 0.00 91 1015.3
20191021034703 60 325 2.0 5.0 0.00 1.42 1.42 90 1015.1